sensor_id;sensor_type;location;lat;lon;timestamp;P1;durP1;ratioP1;P2;durP2;ratioP2
1134;SDS011;556;53.550;10.048;2022-08-20T00:01:57;5.47;;;5.07;;
1134;SDS011;556;53.550;10.048;2022-08-20T00:04:24;5.23;;;4.70;;
1134;SDS011;556;53.550;10.048;2022-08-20T00:06:53;5.83;;;5.23;;
1134;SDS011;556;53.550;10.048;2022-08-20T00:09:20;6.60;;;6.13;;
1134;SDS011;556;53.550;10.048;2022-08-20T00:11:47;5.23;;;4.83;;
1134;SDS011;556;53.550;10.048;2022-08-20T00:14:14;7.17;;;5.07;;
1134;SDS011;556;53.550;10.048;2022-08-20T00:16:41;5.53;;;5.13;;
1134;SDS011;556;53.550;10.048;2022-08-20T00:19:08;9.73;;;5.57;;
1134;SDS011;556;53.550;10.048;2022-08-20T00:21:35;5.20;;;4.73;;
1134;SDS011;556;53.550;10.048;2022-08-20T00:24:04;5.63;;;5.20;;
1134;SDS011;556;53.550;10.048;2022-08-20T00:26:31;5.37;;;4.93;;
1134;SDS011;556;53.550;10.048;2022-08-20T00:28:59;6.70;;;6.10;;
1134;SDS011;556;53.550;10.048;2022-08-20T00:31:26;5.40;;;5.03;;
1134;SDS011;556;53.550;10.048;2022-08-20T00:33:53;5.13;;;4.73;;
1134;SDS011;556;53.550;10.048;2022-08-20T00:36:21;6.20;;;5.80;;
1134;SDS011;556;53.550;10.048;2022-08-20T00:38:49;4.90;;;4.60;;
1134;SDS011;556;53.550;10.048;2022-08-20T00:41:19;5.43;;;4.97;;
1134;SDS011;556;53.550;10.048;2022-08-20T00:43:49;7.30;;;6.33;;
1134;SDS011;556;53.550;10.048;2022-08-20T00:46:19;5.57;;;5.27;;
1134;SDS011;556;53.550;10.048;2022-08-20T00:48:49;4.90;;;4.53;;
1134;SDS011;556;53.550;10.048;2022-08-20T00:51:20;5.43;;;4.93;;
1134;SDS011;556;53.550;10.048;2022-08-20T00:53:52;4.83;;;4.53;;
1134;SDS011;556;53.550;10.048;2022-08-20T00:56:23;4.80;;;4.60;;
1134;SDS011;556;53.550;10.048;2022-08-20T00:58:50;6.10;;;5.60;;
1134;SDS011;556;53.550;10.048;2022-08-20T01:01:19;6.27;;;5.33;;
1134;SDS011;556;53.550;10.048;2022-08-20T01:03:47;4.70;;;4.40;;
1134;SDS011;556;53.550;10.048;2022-08-20T01:06:19;5.43;;;5.03;;
1134;SDS011;556;53.550;10.048;2022-08-20T01:08:46;6.40;;;5.90;;
1134;SDS011;556;53.550;10.048;2022-08-20T01:11:14;6.90;;;6.40;;
1134;SDS011;556;53.550;10.048;2022-08-20T01:13:44;5.50;;;5.10;;
1134;SDS011;556;53.550;10.048;2022-08-20T01:16:14;6.30;;;5.70;;
1134;SDS011;556;53.550;10.048;2022-08-20T01:18:44;5.17;;;4.87;;
1134;SDS011;556;53.550;10.048;2022-08-20T01:21:13;5.70;;;5.40;;
1134;SDS011;556;53.550;10.048;2022-08-20T01:23:46;6.03;;;5.53;;
1134;SDS011;556;53.550;10.048;2022-08-20T01:26:22;5.47;;;5.17;;
1134;SDS011;556;53.550;10.048;2022-08-20T01:28:51;5.90;;;5.50;;
1134;SDS011;556;53.550;10.048;2022-08-20T01:31:21;5.77;;;5.30;;
1134;SDS011;556;53.550;10.048;2022-08-20T01:33:50;5.10;;;4.80;;
1134;SDS011;556;53.550;10.048;2022-08-20T01:36:20;7.23;;;6.73;;
1134;SDS011;556;53.550;10.048;2022-08-20T01:38:51;8.60;;;7.93;;
1134;SDS011;556;53.550;10.048;2022-08-20T01:41:27;7.23;;;6.63;;
1134;SDS011;556;53.550;10.048;2022-08-20T01:44:12;10.07;;;9.20;;
1134;SDS011;556;53.550;10.048;2022-08-20T01:46:40;17.70;;;9.77;;
1134;SDS011;556;53.550;10.048;2022-08-20T01:49:10;18.23;;;10.10;;
1134;SDS011;556;53.550;10.048;2022-08-20T01:51:40;10.73;;;9.63;;
1134;SDS011;556;53.550;10.048;2022-08-20T01:54:08;10.57;;;8.80;;
1134;SDS011;556;53.550;10.048;2022-08-20T01:56:49;8.60;;;7.70;;
1134;SDS011;556;53.550;10.048;2022-08-20T01:59:20;10.73;;;9.63;;
1134;SDS011;556;53.550;10.048;2022-08-20T02:01:47;14.33;;;9.17;;
1134;SDS011;556;53.550;10.048;2022-08-20T02:04:15;7.33;;;6.70;;
1134;SDS011;556;53.550;10.048;2022-08-20T02:06:43;8.43;;;7.67;;
1134;SDS011;556;53.550;10.048;2022-08-20T02:09:13;8.27;;;7.67;;
1134;SDS011;556;53.550;10.048;2022-08-20T02:11:41;9.97;;;7.53;;
1134;SDS011;556;53.550;10.048;2022-08-20T02:14:10;7.77;;;7.17;;
1134;SDS011;556;53.550;10.048;2022-08-20T02:16:40;7.87;;;6.93;;
1134;SDS011;556;53.550;10.048;2022-08-20T02:19:12;7.83;;;7.17;;
1134;SDS011;556;53.550;10.048;2022-08-20T02:21:44;7.00;;;6.50;;
1134;SDS011;556;53.550;10.048;2022-08-20T02:24:16;9.00;;;7.00;;
1134;SDS011;556;53.550;10.048;2022-08-20T02:26:44;7.43;;;6.40;;
1134;SDS011;556;53.550;10.048;2022-08-20T02:29:12;7.57;;;6.93;;
1134;SDS011;556;53.550;10.048;2022-08-20T02:31:41;5.90;;;5.40;;
1134;SDS011;556;53.550;10.048;2022-08-20T02:34:10;6.97;;;6.47;;
1134;SDS011;556;53.550;10.048;2022-08-20T02:36:59;7.27;;;6.67;;
1134;SDS011;556;53.550;10.048;2022-08-20T02:39:26;8.40;;;7.27;;
1134;SDS011;556;53.550;10.048;2022-08-20T02:41:54;7.90;;;7.27;;
1134;SDS011;556;53.550;10.048;2022-08-20T02:44:22;7.53;;;6.93;;
1134;SDS011;556;53.550;10.048;2022-08-20T02:46:49;7.50;;;6.80;;
1134;SDS011;556;53.550;10.048;2022-08-20T02:49:16;9.53;;;7.43;;
1134;SDS011;556;53.550;10.048;2022-08-20T02:51:44;8.13;;;7.43;;
1134;SDS011;556;53.550;10.048;2022-08-20T02:54:12;7.70;;;6.90;;
1134;SDS011;556;53.550;10.048;2022-08-20T02:56:40;9.40;;;8.50;;
1134;SDS011;556;53.550;10.048;2022-08-20T02:59:09;7.40;;;6.90;;
1134;SDS011;556;53.550;10.048;2022-08-20T03:01:36;10.10;;;9.03;;
1134;SDS011;556;53.550;10.048;2022-08-20T03:04:03;14.20;;;8.70;;
1134;SDS011;556;53.550;10.048;2022-08-20T03:06:31;11.73;;;6.53;;
1134;SDS011;556;53.550;10.048;2022-08-20T03:08:58;9.53;;;8.13;;
1134;SDS011;556;53.550;10.048;2022-08-20T03:11:27;11.37;;;9.03;;
1134;SDS011;556;53.550;10.048;2022-08-20T03:13:54;8.30;;;7.20;;
1134;SDS011;556;53.550;10.048;2022-08-20T03:16:23;12.87;;;7.87;;
1134;SDS011;556;53.550;10.048;2022-08-20T03:18:50;12.80;;;7.77;;
1134;SDS011;556;53.550;10.048;2022-08-20T03:21:17;7.77;;;6.90;;
1134;SDS011;556;53.550;10.048;2022-08-20T03:23:44;9.70;;;7.30;;
1134;SDS011;556;53.550;10.048;2022-08-20T03:26:11;9.20;;;7.50;;
1134;SDS011;556;53.550;10.048;2022-08-20T03:28:39;9.10;;;8.20;;
1134;SDS011;556;53.550;10.048;2022-08-20T03:31:09;7.37;;;6.80;;
1134;SDS011;556;53.550;10.048;2022-08-20T03:33:38;11.20;;;8.60;;
1134;SDS011;556;53.550;10.048;2022-08-20T03:36:05;9.37;;;7.83;;
1134;SDS011;556;53.550;10.048;2022-08-20T03:38:33;9.60;;;8.70;;
1134;SDS011;556;53.550;10.048;2022-08-20T03:41:00;9.37;;;8.20;;
1134;SDS011;556;53.550;10.048;2022-08-20T03:43:28;11.53;;;8.10;;
1134;SDS011;556;53.550;10.048;2022-08-20T03:45:56;16.60;;;8.50;;
1134;SDS011;556;53.550;10.048;2022-08-20T03:48:24;9.73;;;7.80;;
1134;SDS011;556;53.550;10.048;2022-08-20T03:50:54;9.53;;;7.53;;
1134;SDS011;556;53.550;10.048;2022-08-20T03:53:25;13.00;;;10.00;;
1134;SDS011;556;53.550;10.048;2022-08-20T03:55:57;9.73;;;6.80;;
1134;SDS011;556;53.550;10.048;2022-08-20T03:58:28;10.63;;;8.23;;
1134;SDS011;556;53.550;10.048;2022-08-20T04:00:57;9.13;;;7.30;;
1134;SDS011;556;53.550;10.048;2022-08-20T04:03:24;9.70;;;8.77;;
1134;SDS011;556;53.550;10.048;2022-08-20T04:05:53;12.23;;;6.73;;
1134;SDS011;556;53.550;10.048;2022-08-20T04:08:21;8.97;;;7.00;;
1134;SDS011;556;53.550;10.048;2022-08-20T04:10:51;12.30;;;9.00;;
1134;SDS011;556;53.550;10.048;2022-08-20T04:13:21;8.30;;;7.40;;
1134;SDS011;556;53.550;10.048;2022-08-20T04:15:49;9.50;;;7.73;;
1134;SDS011;556;53.550;10.048;2022-08-20T04:18:19;11.30;;;8.27;;
1134;SDS011;556;53.550;10.048;2022-08-20T04:20:48;8.40;;;7.17;;
1134;SDS011;556;53.550;10.048;2022-08-20T04:23:18;15.53;;;10.17;;
1134;SDS011;556;53.550;10.048;2022-08-20T04:25:45;7.60;;;6.63;;
1134;SDS011;556;53.550;10.048;2022-08-20T04:28:15;11.33;;;8.70;;
1134;SDS011;556;53.550;10.048;2022-08-20T04:30:49;8.40;;;6.57;;
1134;SDS011;556;53.550;10.048;2022-08-20T04:33:17;10.03;;;9.07;;
1134;SDS011;556;53.550;10.048;2022-08-20T04:35:45;8.80;;;7.23;;
1134;SDS011;556;53.550;10.048;2022-08-20T04:38:12;14.07;;;8.63;;
1134;SDS011;556;53.550;10.048;2022-08-20T04:40:43;11.10;;;7.77;;
1134;SDS011;556;53.550;10.048;2022-08-20T04:43:22;12.23;;;8.00;;
1134;SDS011;556;53.550;10.048;2022-08-20T04:45:51;11.77;;;9.10;;
1134;SDS011;556;53.550;10.048;2022-08-20T04:48:19;7.73;;;6.90;;
1134;SDS011;556;53.550;10.048;2022-08-20T04:50:48;11.63;;;7.40;;
1134;SDS011;556;53.550;10.048;2022-08-20T04:53:19;10.20;;;7.40;;
1134;SDS011;556;53.550;10.048;2022-08-20T04:55:49;10.87;;;8.43;;
1134;SDS011;556;53.550;10.048;2022-08-20T04:58:18;10.17;;;7.70;;
1134;SDS011;556;53.550;10.048;2022-08-20T05:00:47;10.20;;;7.93;;
1134;SDS011;556;53.550;10.048;2022-08-20T05:03:16;8.13;;;6.63;;
1134;SDS011;556;53.550;10.048;2022-08-20T05:05:44;10.80;;;7.67;;
1134;SDS011;556;53.550;10.048;2022-08-20T05:08:12;8.50;;;6.20;;
1134;SDS011;556;53.550;10.048;2022-08-20T05:10:40;9.63;;;7.43;;
1134;SDS011;556;53.550;10.048;2022-08-20T05:13:09;11.30;;;7.67;;
1134;SDS011;556;53.550;10.048;2022-08-20T05:15:37;10.00;;;7.03;;
1134;SDS011;556;53.550;10.048;2022-08-20T05:18:05;10.43;;;8.30;;
1134;SDS011;556;53.550;10.048;2022-08-20T05:20:34;8.97;;;6.30;;
1134;SDS011;556;53.550;10.048;2022-08-20T05:23:05;8.67;;;6.67;;
1134;SDS011;556;53.550;10.048;2022-08-20T05:25:33;12.93;;;6.67;;
1134;SDS011;556;53.550;10.048;2022-08-20T05:28:02;10.50;;;6.47;;
1134;SDS011;556;53.550;10.048;2022-08-20T05:30:33;7.73;;;6.93;;
1134;SDS011;556;53.550;10.048;2022-08-20T05:33:03;8.33;;;6.70;;
1134;SDS011;556;53.550;10.048;2022-08-20T05:35:31;12.37;;;6.87;;
1134;SDS011;556;53.550;10.048;2022-08-20T05:38:03;10.53;;;6.37;;
1134;SDS011;556;53.550;10.048;2022-08-20T05:40:31;9.30;;;6.20;;
1134;SDS011;556;53.550;10.048;2022-08-20T05:42:58;7.73;;;5.83;;
1134;SDS011;556;53.550;10.048;2022-08-20T05:45:28;6.53;;;5.40;;
1134;SDS011;556;53.550;10.048;2022-08-20T05:47:57;7.77;;;5.33;;
1134;SDS011;556;53.550;10.048;2022-08-20T05:50:24;7.90;;;6.07;;
1134;SDS011;556;53.550;10.048;2022-08-20T05:52:51;17.27;;;8.07;;
1134;SDS011;556;53.550;10.048;2022-08-20T05:55:19;7.80;;;5.40;;
1134;SDS011;556;53.550;10.048;2022-08-20T05:57:46;9.03;;;5.27;;
1134;SDS011;556;53.550;10.048;2022-08-20T06:00:14;8.73;;;5.17;;
1134;SDS011;556;53.550;10.048;2022-08-20T06:02:41;9.87;;;6.53;;
1134;SDS011;556;53.550;10.048;2022-08-20T06:05:27;9.37;;;6.50;;
1134;SDS011;556;53.550;10.048;2022-08-20T06:07:54;6.33;;;4.83;;
1134;SDS011;556;53.550;10.048;2022-08-20T06:10:21;8.10;;;5.50;;
1134;SDS011;556;53.550;10.048;2022-08-20T06:12:48;8.87;;;6.50;;
1134;SDS011;556;53.550;10.048;2022-08-20T06:15:17;11.37;;;6.77;;
1134;SDS011;556;53.550;10.048;2022-08-20T06:17:45;11.50;;;6.70;;
1134;SDS011;556;53.550;10.048;2022-08-20T06:20:12;9.63;;;5.47;;
1134;SDS011;556;53.550;10.048;2022-08-20T06:22:40;9.33;;;5.53;;
1134;SDS011;556;53.550;10.048;2022-08-20T06:25:08;8.87;;;6.50;;
1134;SDS011;556;53.550;10.048;2022-08-20T06:27:36;9.63;;;8.37;;
1134;SDS011;556;53.550;10.048;2022-08-20T06:30:05;6.50;;;5.73;;
1134;SDS011;556;53.550;10.048;2022-08-20T06:32:33;8.03;;;6.27;;
1134;SDS011;556;53.550;10.048;2022-08-20T06:35:01;7.07;;;5.70;;
1134;SDS011;556;53.550;10.048;2022-08-20T06:37:30;9.80;;;7.20;;
1134;SDS011;556;53.550;10.048;2022-08-20T06:40:02;10.23;;;5.50;;
1134;SDS011;556;53.550;10.048;2022-08-20T06:42:33;7.17;;;5.73;;
1134;SDS011;556;53.550;10.048;2022-08-20T06:45:01;8.00;;;6.43;;
1134;SDS011;556;53.550;10.048;2022-08-20T06:47:30;6.33;;;5.60;;
1134;SDS011;556;53.550;10.048;2022-08-20T06:49:57;10.07;;;6.10;;
1134;SDS011;556;53.550;10.048;2022-08-20T06:52:24;7.33;;;5.70;;
1134;SDS011;556;53.550;10.048;2022-08-20T06:54:51;7.37;;;5.63;;
1134;SDS011;556;53.550;10.048;2022-08-20T06:57:19;8.60;;;6.23;;
1134;SDS011;556;53.550;10.048;2022-08-20T06:59:46;7.87;;;6.47;;
1134;SDS011;556;53.550;10.048;2022-08-20T07:02:13;9.03;;;5.77;;
1134;SDS011;556;53.550;10.048;2022-08-20T07:04:41;8.83;;;5.60;;
1134;SDS011;556;53.550;10.048;2022-08-20T07:07:14;6.50;;;5.33;;
1134;SDS011;556;53.550;10.048;2022-08-20T07:09:42;6.13;;;4.50;;
1134;SDS011;556;53.550;10.048;2022-08-20T07:12:10;5.87;;;5.37;;
1134;SDS011;556;53.550;10.048;2022-08-20T07:14:39;7.90;;;6.60;;
1134;SDS011;556;53.550;10.048;2022-08-20T07:17:06;4.63;;;3.80;;
1134;SDS011;556;53.550;10.048;2022-08-20T07:19:33;4.80;;;4.23;;
1134;SDS011;556;53.550;10.048;2022-08-20T07:22:02;15.50;;;4.83;;
1134;SDS011;556;53.550;10.048;2022-08-20T07:24:29;5.27;;;4.77;;
1134;SDS011;556;53.550;10.048;2022-08-20T07:26:57;16.47;;;3.93;;
1134;SDS011;556;53.550;10.048;2022-08-20T07:29:25;4.47;;;4.10;;
1134;SDS011;556;53.550;10.048;2022-08-20T07:32:13;4.77;;;4.30;;
1134;SDS011;556;53.550;10.048;2022-08-20T07:34:58;6.90;;;4.20;;
1134;SDS011;556;53.550;10.048;2022-08-20T07:37:25;13.23;;;4.20;;
1134;SDS011;556;53.550;10.048;2022-08-20T07:39:52;8.73;;;3.80;;
1134;SDS011;556;53.550;10.048;2022-08-20T07:42:19;4.70;;;3.80;;
1134;SDS011;556;53.550;10.048;2022-08-20T07:44:46;7.10;;;3.37;;
1134;SDS011;556;53.550;10.048;2022-08-20T07:47:18;8.63;;;2.90;;
1134;SDS011;556;53.550;10.048;2022-08-20T07:49:45;3.23;;;2.93;;
1134;SDS011;556;53.550;10.048;2022-08-20T07:52:12;4.60;;;3.57;;
1134;SDS011;556;53.550;10.048;2022-08-20T07:54:40;5.10;;;3.47;;
1134;SDS011;556;53.550;10.048;2022-08-20T07:57:08;5.50;;;3.63;;
1134;SDS011;556;53.550;10.048;2022-08-20T07:59:36;3.83;;;3.53;;
1134;SDS011;556;53.550;10.048;2022-08-20T08:02:03;3.27;;;3.07;;
1134;SDS011;556;53.550;10.048;2022-08-20T08:04:32;7.03;;;3.40;;
1134;SDS011;556;53.550;10.048;2022-08-20T08:07:01;3.17;;;2.93;;
1134;SDS011;556;53.550;10.048;2022-08-20T08:09:28;3.13;;;2.37;;
1134;SDS011;556;53.550;10.048;2022-08-20T08:11:56;4.00;;;3.80;;
1134;SDS011;556;53.550;10.048;2022-08-20T08:14:25;3.50;;;2.60;;
1134;SDS011;556;53.550;10.048;2022-08-20T08:16:57;3.70;;;3.40;;
1134;SDS011;556;53.550;10.048;2022-08-20T08:19:28;8.03;;;3.40;;
1134;SDS011;556;53.550;10.048;2022-08-20T08:22:03;6.93;;;3.90;;
1134;SDS011;556;53.550;10.048;2022-08-20T08:24:32;4.57;;;3.30;;
1134;SDS011;556;53.550;10.048;2022-08-20T08:26:59;4.73;;;4.00;;
1134;SDS011;556;53.550;10.048;2022-08-20T08:29:26;3.10;;;3.00;;
1134;SDS011;556;53.550;10.048;2022-08-20T08:31:54;4.20;;;3.93;;
1134;SDS011;556;53.550;10.048;2022-08-20T08:34:21;3.63;;;3.43;;
1134;SDS011;556;53.550;10.048;2022-08-20T08:36:50;4.37;;;3.97;;
1134;SDS011;556;53.550;10.048;2022-08-20T08:39:18;6.17;;;4.00;;
1134;SDS011;556;53.550;10.048;2022-08-20T08:41:47;5.07;;;4.57;;
1134;SDS011;556;53.550;10.048;2022-08-20T08:44:18;3.80;;;3.60;;
1134;SDS011;556;53.550;10.048;2022-08-20T08:46:48;4.93;;;4.53;;
1134;SDS011;556;53.550;10.048;2022-08-20T08:49:20;4.30;;;4.00;;
1134;SDS011;556;53.550;10.048;2022-08-20T08:51:50;3.40;;;3.20;;
1134;SDS011;556;53.550;10.048;2022-08-20T08:54:23;4.80;;;4.37;;
1134;SDS011;556;53.550;10.048;2022-08-20T08:56:54;4.37;;;4.17;;
1134;SDS011;556;53.550;10.048;2022-08-20T08:59:21;4.17;;;3.97;;
1134;SDS011;556;53.550;10.048;2022-08-20T09:01:50;5.20;;;4.93;;
1134;SDS011;556;53.550;10.048;2022-08-20T09:04:19;5.67;;;4.40;;
1134;SDS011;556;53.550;10.048;2022-08-20T09:06:48;5.57;;;5.27;;
1134;SDS011;556;53.550;10.048;2022-08-20T09:09:18;4.13;;;3.93;;
1134;SDS011;556;53.550;10.048;2022-08-20T09:11:49;4.87;;;3.97;;
1134;SDS011;556;53.550;10.048;2022-08-20T09:14:18;5.17;;;4.77;;
1134;SDS011;556;53.550;10.048;2022-08-20T09:16:46;5.20;;;4.90;;
1134;SDS011;556;53.550;10.048;2022-08-20T09:19:13;5.30;;;5.00;;
1134;SDS011;556;53.550;10.048;2022-08-20T09:21:40;6.37;;;5.90;;
1134;SDS011;556;53.550;10.048;2022-08-20T09:24:07;7.23;;;6.63;;
1134;SDS011;556;53.550;10.048;2022-08-20T09:26:35;6.23;;;5.83;;
1134;SDS011;556;53.550;10.048;2022-08-20T09:29:03;7.87;;;7.43;;
1134;SDS011;556;53.550;10.048;2022-08-20T09:31:30;6.10;;;5.90;;
1134;SDS011;556;53.550;10.048;2022-08-20T09:33:57;5.57;;;5.37;;
1134;SDS011;556;53.550;10.048;2022-08-20T09:36:24;7.60;;;6.90;;
1134;SDS011;556;53.550;10.048;2022-08-20T09:38:52;7.83;;;7.07;;
1134;SDS011;556;53.550;10.048;2022-08-20T09:41:19;6.80;;;6.47;;
1134;SDS011;556;53.550;10.048;2022-08-20T09:43:46;9.23;;;8.37;;
1134;SDS011;556;53.550;10.048;2022-08-20T09:46:15;7.57;;;7.27;;
1134;SDS011;556;53.550;10.048;2022-08-20T09:48:42;8.70;;;8.10;;
1134;SDS011;556;53.550;10.048;2022-08-20T09:51:09;7.67;;;7.13;;
1134;SDS011;556;53.550;10.048;2022-08-20T09:53:37;8.47;;;8.17;;
1134;SDS011;556;53.550;10.048;2022-08-20T09:56:04;8.83;;;8.20;;
1134;SDS011;556;53.550;10.048;2022-08-20T09:58:33;7.20;;;7.00;;
1134;SDS011;556;53.550;10.048;2022-08-20T10:01:05;7.40;;;7.10;;
1134;SDS011;556;53.550;10.048;2022-08-20T10:03:36;7.73;;;7.03;;
1134;SDS011;556;53.550;10.048;2022-08-20T10:06:03;8.53;;;8.03;;
1134;SDS011;556;53.550;10.048;2022-08-20T10:08:30;9.47;;;8.20;;
1134;SDS011;556;53.550;10.048;2022-08-20T10:10:57;8.63;;;8.00;;
1134;SDS011;556;53.550;10.048;2022-08-20T10:13:24;12.03;;;8.90;;
1134;SDS011;556;53.550;10.048;2022-08-20T10:15:51;8.30;;;8.00;;
1134;SDS011;556;53.550;10.048;2022-08-20T10:18:18;9.07;;;8.67;;
1134;SDS011;556;53.550;10.048;2022-08-20T10:20:47;9.00;;;8.50;;
1134;SDS011;556;53.550;10.048;2022-08-20T10:23:14;10.17;;;9.40;;
1134;SDS011;556;53.550;10.048;2022-08-20T10:25:42;9.20;;;8.87;;
1134;SDS011;556;53.550;10.048;2022-08-20T10:28:09;9.67;;;9.10;;
1134;SDS011;556;53.550;10.048;2022-08-20T10:30:36;9.00;;;8.60;;
1134;SDS011;556;53.550;10.048;2022-08-20T10:33:05;9.20;;;8.67;;
1134;SDS011;556;53.550;10.048;2022-08-20T10:35:34;10.33;;;9.70;;
1134;SDS011;556;53.550;10.048;2022-08-20T10:38:02;11.17;;;10.50;;
1134;SDS011;556;53.550;10.048;2022-08-20T10:40:29;10.13;;;9.83;;
1134;SDS011;556;53.550;10.048;2022-08-20T10:42:56;8.90;;;8.60;;
1134;SDS011;556;53.550;10.048;2022-08-20T10:45:23;10.17;;;9.77;;
1134;SDS011;556;53.550;10.048;2022-08-20T10:47:51;10.93;;;10.13;;
1134;SDS011;556;53.550;10.048;2022-08-20T10:50:18;11.20;;;10.17;;
1134;SDS011;556;53.550;10.048;2022-08-20T10:52:45;10.20;;;9.90;;
1134;SDS011;556;53.550;10.048;2022-08-20T10:55:14;10.20;;;9.67;;
1134;SDS011;556;53.550;10.048;2022-08-20T10:57:42;12.00;;;10.40;;
1134;SDS011;556;53.550;10.048;2022-08-20T11:00:10;10.50;;;10.17;;
1134;SDS011;556;53.550;10.048;2022-08-20T11:02:39;10.30;;;9.90;;
1134;SDS011;556;53.550;10.048;2022-08-20T11:05:06;11.37;;;10.87;;
1134;SDS011;556;53.550;10.048;2022-08-20T11:07:34;12.20;;;11.80;;
1134;SDS011;556;53.550;10.048;2022-08-20T11:10:03;11.17;;;10.87;;
1134;SDS011;556;53.550;10.048;2022-08-20T11:12:32;12.30;;;11.40;;
1134;SDS011;556;53.550;10.048;2022-08-20T11:15:00;13.63;;;12.53;;
1134;SDS011;556;53.550;10.048;2022-08-20T11:17:28;11.90;;;11.30;;
1134;SDS011;556;53.550;10.048;2022-08-20T11:19:57;12.73;;;12.13;;
1134;SDS011;556;53.550;10.048;2022-08-20T11:22:26;12.43;;;11.90;;
1134;SDS011;556;53.550;10.048;2022-08-20T11:24:53;11.67;;;11.00;;
1134;SDS011;556;53.550;10.048;2022-08-20T11:27:22;12.07;;;11.63;;
1134;SDS011;556;53.550;10.048;2022-08-20T11:29:53;12.47;;;11.90;;
1134;SDS011;556;53.550;10.048;2022-08-20T11:32:22;12.27;;;11.77;;
1134;SDS011;556;53.550;10.048;2022-08-20T11:34:50;13.20;;;12.57;;
1134;SDS011;556;53.550;10.048;2022-08-20T11:37:18;12.77;;;12.27;;
1134;SDS011;556;53.550;10.048;2022-08-20T11:39:47;13.43;;;12.93;;
1134;SDS011;556;53.550;10.048;2022-08-20T11:42:14;12.73;;;12.17;;
1134;SDS011;556;53.550;10.048;2022-08-20T11:44:41;12.57;;;11.87;;
1134;SDS011;556;53.550;10.048;2022-08-20T11:47:18;12.70;;;11.90;;
1134;SDS011;556;53.550;10.048;2022-08-20T11:49:54;13.13;;;12.40;;
1134;SDS011;556;53.550;10.048;2022-08-20T11:52:22;13.23;;;12.60;;
1134;SDS011;556;53.550;10.048;2022-08-20T11:54:49;13.57;;;12.83;;
1134;SDS011;556;53.550;10.048;2022-08-20T11:57:18;13.00;;;12.50;;
1134;SDS011;556;53.550;10.048;2022-08-20T11:59:47;13.33;;;12.40;;
1134;SDS011;556;53.550;10.048;2022-08-20T12:02:16;12.57;;;12.07;;
1134;SDS011;556;53.550;10.048;2022-08-20T12:04:43;14.40;;;13.80;;
1134;SDS011;556;53.550;10.048;2022-08-20T12:07:11;11.87;;;11.47;;
1134;SDS011;556;53.550;10.048;2022-08-20T12:09:40;13.30;;;12.80;;
1134;SDS011;556;53.550;10.048;2022-08-20T12:12:08;13.57;;;12.70;;
1134;SDS011;556;53.550;10.048;2022-08-20T12:14:35;13.17;;;12.47;;
1134;SDS011;556;53.550;10.048;2022-08-20T12:17:06;13.93;;;13.03;;
1134;SDS011;556;53.550;10.048;2022-08-20T12:19:36;13.60;;;13.10;;
1134;SDS011;556;53.550;10.048;2022-08-20T12:22:04;13.20;;;12.70;;
1134;SDS011;556;53.550;10.048;2022-08-20T12:24:32;12.90;;;12.10;;
1134;SDS011;556;53.550;10.048;2022-08-20T12:27:07;12.30;;;11.70;;
1134;SDS011;556;53.550;10.048;2022-08-20T12:29:35;13.20;;;12.50;;
1134;SDS011;556;53.550;10.048;2022-08-20T12:32:03;13.90;;;13.07;;
1134;SDS011;556;53.550;10.048;2022-08-20T12:34:31;13.97;;;13.23;;
1134;SDS011;556;53.550;10.048;2022-08-20T12:37:00;12.93;;;12.53;;
1134;SDS011;556;53.550;10.048;2022-08-20T12:39:29;16.60;;;13.67;;
1134;SDS011;556;53.550;10.048;2022-08-20T12:41:57;14.20;;;13.53;;
1134;SDS011;556;53.550;10.048;2022-08-20T12:44:27;13.73;;;13.23;;
1134;SDS011;556;53.550;10.048;2022-08-20T12:47:03;13.40;;;12.90;;
1134;SDS011;556;53.550;10.048;2022-08-20T12:49:32;14.10;;;13.27;;
1134;SDS011;556;53.550;10.048;2022-08-20T12:52:00;13.67;;;13.17;;
1134;SDS011;556;53.550;10.048;2022-08-20T12:54:28;13.70;;;13.20;;
1134;SDS011;556;53.550;10.048;2022-08-20T12:56:55;14.83;;;13.90;;
1134;SDS011;556;53.550;10.048;2022-08-20T12:59:23;15.60;;;14.67;;
1134;SDS011;556;53.550;10.048;2022-08-20T13:01:51;16.07;;;15.17;;
1134;SDS011;556;53.550;10.048;2022-08-20T13:04:19;13.27;;;12.77;;
1134;SDS011;556;53.550;10.048;2022-08-20T13:06:46;14.13;;;13.30;;
1134;SDS011;556;53.550;10.048;2022-08-20T13:09:15;13.37;;;12.87;;
1134;SDS011;556;53.550;10.048;2022-08-20T13:11:43;13.60;;;13.20;;
1134;SDS011;556;53.550;10.048;2022-08-20T13:14:10;14.20;;;13.70;;
1134;SDS011;556;53.550;10.048;2022-08-20T13:16:37;13.97;;;13.43;;
1134;SDS011;556;53.550;10.048;2022-08-20T13:19:04;14.57;;;14.07;;
1134;SDS011;556;53.550;10.048;2022-08-20T13:21:31;14.47;;;13.77;;
1134;SDS011;556;53.550;10.048;2022-08-20T13:23:58;13.93;;;13.43;;
1134;SDS011;556;53.550;10.048;2022-08-20T13:26:27;14.50;;;14.00;;
1134;SDS011;556;53.550;10.048;2022-08-20T13:28:54;13.50;;;13.00;;
1134;SDS011;556;53.550;10.048;2022-08-20T13:31:21;14.98;;;14.45;;
1134;SDS011;556;53.550;10.048;2022-08-20T13:33:48;15.45;;;14.95;;
1134;SDS011;556;53.550;10.048;2022-08-20T13:36:16;14.45;;;13.73;;
1134;SDS011;556;53.550;10.048;2022-08-20T13:38:43;14.05;;;13.55;;
1134;SDS011;556;53.550;10.048;2022-08-20T13:41:10;14.75;;;14.25;;
1134;SDS011;556;53.550;10.048;2022-08-20T13:43:38;14.50;;;13.85;;
1134;SDS011;556;53.550;10.048;2022-08-20T13:46:05;13.57;;;13.15;;
1134;SDS011;556;53.550;10.048;2022-08-20T13:48:32;13.82;;;13.27;;
1134;SDS011;556;53.550;10.048;2022-08-20T13:51:00;13.43;;;13.02;;
1134;SDS011;556;53.550;10.048;2022-08-20T13:53:27;14.45;;;13.73;;
1134;SDS011;556;53.550;10.048;2022-08-20T13:55:54;14.88;;;14.23;;
1134;SDS011;556;53.550;10.048;2022-08-20T13:58:22;14.15;;;13.55;;
1134;SDS011;556;53.550;10.048;2022-08-20T14:00:50;14.15;;;13.55;;
1134;SDS011;556;53.550;10.048;2022-08-20T14:03:17;14.13;;;13.73;;
1134;SDS011;556;53.550;10.048;2022-08-20T14:05:45;14.73;;;14.23;;
1134;SDS011;556;53.550;10.048;2022-08-20T14:08:13;14.30;;;13.80;;
1134;SDS011;556;53.550;10.048;2022-08-20T14:10:45;14.90;;;14.30;;
1134;SDS011;556;53.550;10.048;2022-08-20T14:13:14;15.20;;;14.30;;
1134;SDS011;556;53.550;10.048;2022-08-20T14:15:42;15.30;;;14.67;;
1134;SDS011;556;53.550;10.048;2022-08-20T14:18:13;15.30;;;14.70;;
1134;SDS011;556;53.550;10.048;2022-08-20T14:20:41;15.00;;;14.40;;
1134;SDS011;556;53.550;10.048;2022-08-20T14:23:09;14.23;;;13.52;;
1134;SDS011;556;53.550;10.048;2022-08-20T14:25:36;13.70;;;13.02;;
1134;SDS011;556;53.550;10.048;2022-08-20T14:28:09;13.93;;;13.52;;
1134;SDS011;556;53.550;10.048;2022-08-20T14:30:39;13.60;;;13.00;;
1134;SDS011;556;53.550;10.048;2022-08-20T14:33:07;13.13;;;12.45;;
1134;SDS011;556;53.550;10.048;2022-08-20T14:35:36;14.15;;;13.63;;
1134;SDS011;556;53.550;10.048;2022-08-20T14:38:04;13.63;;;13.23;;
1134;SDS011;556;53.550;10.048;2022-08-20T14:40:33;14.48;;;13.98;;
1134;SDS011;556;53.550;10.048;2022-08-20T14:43:02;13.15;;;12.75;;
1134;SDS011;556;53.550;10.048;2022-08-20T14:45:30;13.65;;;13.15;;
1134;SDS011;556;53.550;10.048;2022-08-20T14:47:57;14.43;;;13.55;;
1134;SDS011;556;53.550;10.048;2022-08-20T14:50:25;13.85;;;13.15;;
1134;SDS011;556;53.550;10.048;2022-08-20T14:52:57;12.40;;;11.90;;
1134;SDS011;556;53.550;10.048;2022-08-20T14:55:25;12.98;;;12.57;;
1134;SDS011;556;53.550;10.048;2022-08-20T14:57:54;13.93;;;13.32;;
1134;SDS011;556;53.550;10.048;2022-08-20T15:00:22;13.60;;;13.05;;
1134;SDS011;556;53.550;10.048;2022-08-20T15:02:52;13.60;;;13.00;;
1134;SDS011;556;53.550;10.048;2022-08-20T15:05:19;12.77;;;12.38;;
1134;SDS011;556;53.550;10.048;2022-08-20T15:07:47;13.30;;;12.90;;
1134;SDS011;556;53.550;10.048;2022-08-20T15:10:18;12.70;;;12.10;;
1134;SDS011;556;53.550;10.048;2022-08-20T15:12:48;12.77;;;12.23;;
1134;SDS011;556;53.550;10.048;2022-08-20T15:15:15;14.50;;;14.00;;